This is the latest recevied weather packets stored in our database for station/object CT1ETE-13. If no packets are shown the sender has not sent any weather packets the latest 10 day(s).
| Time | Temp. | Humidity | Pressure | Rain* | Wind** | Luminosity | Snow |
|---|---|---|---|---|---|---|---|
| 1787989207 | 16.67° C | 85% | 1021.3 hPa | 0 mm | - | 1443 W/m² | - |
| 1787988310 | 16.11° C | 83% | 1021.3 hPa | 0 mm | - | 1450 W/m² | - |
| 1787987407 | 15.56° C | 80% | 1021.3 hPa | 0 mm | - | 1459 W/m² | - |
| 1787986500 | 15.56° C | 70% | 1021.2 hPa | 0 mm | - | 1468 W/m² | - |
| 1787985613 | 15° C | 71% | 1021.1 hPa | 0 mm | - | 1471 W/m² | - |
| 1787984700 | 15° C | 73% | 1021 hPa | 0 mm | - | 1473 W/m² | - |
| 1787983809 | 15° C | 73% | 1021 hPa | 0 mm | - | 1473 W/m² | - |
| 1787982900 | 15° C | 71% | 1021 hPa | 0 mm | - | 1473 W/m² | - |
| 1787982004 | 14.44° C | 71% | 1021.1 hPa | 0 mm | - | 1475 W/m² | - |
| 1787981160 | 14.44° C | 71% | 1021.1 hPa | 0 mm | - | 1475 W/m² | - |
| 1787980204 | 14.44° C | 70% | 1021.2 hPa | 0 mm | - | 1477 W/m² | - |
| 1787979299 | 14.44° C | 72% | 1021.1 hPa | 0 mm | - | 1477 W/m² | - |
| 1787978400 | 14.44° C | 72% | 1021.2 hPa | 0 mm | - | 1477 W/m² | - |
| 1787977559 | 14.44° C | 70% | 1021.2 hPa | 0 mm | - | 1475 W/m² | - |
| 1787976599 | 14.44° C | 71% | 1021.1 hPa | 0 mm | - | 1475 W/m² | - |
| 1787975760 | 14.44° C | 74% | 1021.1 hPa | 0 mm | - | 1475 W/m² | - |
| 1787974799 | 15° C | 71% | 1021.2 hPa | 0 mm | - | 1473 W/m² | - |
| 1787973955 | 15° C | 73% | 1021.3 hPa | 0 mm | - | 1473 W/m² | - |
| 1787973053 | 15° C | 74% | 1021.2 hPa | 0 mm | - | 1473 W/m² | - |
| 1787972092 | 15° C | 74% | 1021.2 hPa | 0 mm | - | 1473 W/m² | - |
| 1787971192 | 14.44° C | 77% | 1021.2 hPa | 0 mm | - | 1475 W/m² | - |
| 1787970291 | 15° C | 78% | 1021.4 hPa | 0 mm | - | 1475 W/m² | - |
| 1787969391 | 15° C | 79% | 1021.6 hPa | 0 mm | - | 1475 W/m² | - |
| 1787968551 | 15° C | 79% | 1021.4 hPa | 0 mm | - | 1473 W/m² | - |
| 1787967589 | 15.56° C | 80% | 1021.6 hPa | 0 mm | - | 1471 W/m² | - |
* Rain latest hour (hover to see other rain measurements)
** Current wind speed in m/s (hover to see current wind gust speed)